Terminal Aerodrome Forecast
Issued by NWS Pocatello, ID

Home | Current Version | Previous Version | Text Only | Print | Product List | Glossary On
Versions: 1 2 3 4 5 6 7 8 9 10 11 12 13
481
FTUS45 KPIH 171720
TAFIDA
TAF
KIDA 171720Z 1718/1818 21012G22KT P6SM FEW070 FEW250
     FM180300 20007KT P6SM FEW250
     FM181700 21011KT P6SM FEW250=

USA.gov is the U.S. government's official web portal to all federal, state and local government web resources and services.